Brill, Wisconsin
Current Conditions -  °F | °C
As of 12:15 AM on Thursday 29 Jan 2015 (Local Time) from KRPD Reporting Station
Moderate Fog Moderate Fog  
Wind Chill: 28°   Ceiling: 300
Heat Index: 28°   Visibility: 0.5mi
Dew Point: 27°   Wind: 0mph
Humidity: 98%   Direction: NA
Pressure: 29.85"   Gusts: NA
Location:  45.6°N, 91.67°W
Report Text: KRPD 290615Z AUTO 00000KT 1/2SM FZFG OVC003 M02/M03 A2985 RMK AO2 T10251028
Loading
Personal Weather Stations






























Interactive Weather Map New forecast layout! Learn more

10-Day Weather Forecast

Advertisements
Track Severe Weather on mobile